createdAt,value
2023-07-19T00:00:08.479Z,98274.38
2023-07-19T00:02:40.855Z,98277.35
2023-07-19T00:05:09.289Z,98278.02
2023-07-19T00:07:36.348Z,98276.60
2023-07-19T00:10:04.663Z,98272.70
2023-07-19T00:12:46.107Z,98269.32
2023-07-19T00:15:18.167Z,98272.43
2023-07-19T00:17:45.732Z,98272.55
2023-07-19T00:20:13.183Z,98266.55
2023-07-19T00:22:40.206Z,98262.27
2023-07-19T00:25:07.692Z,98257.77
2023-07-19T00:27:34.591Z,98255.57
2023-07-19T00:30:01.502Z,98250.86
2023-07-19T00:32:28.470Z,98246.39
2023-07-19T00:34:55.388Z,98239.50
2023-07-19T00:37:22.417Z,98232.85
2023-07-19T00:39:49.817Z,98230.66
2023-07-19T00:42:16.633Z,98222.20
2023-07-19T00:44:43.735Z,98221.66
2023-07-19T00:47:10.903Z,98221.48
2023-07-19T00:49:41.517Z,98218.20
2023-07-19T00:52:09.607Z,98215.48
2023-07-19T00:54:37.821Z,98216.27
2023-07-19T00:57:08.365Z,98218.57
2023-07-19T00:59:35.546Z,98213.54
2023-07-19T01:02:03.099Z,98212.38
2023-07-19T01:04:31.034Z,98213.98
2023-07-19T01:06:58.409Z,98209.65
2023-07-19T01:09:26.955Z,98207.31
2023-07-19T01:11:54.170Z,98202.30
2023-07-19T01:14:21.021Z,98202.55
2023-07-19T01:16:47.873Z,98201.52
2023-07-19T01:19:16.576Z,98197.40
2023-07-19T01:21:43.471Z,98203.73
2023-07-19T01:24:10.337Z,98200.05
2023-07-19T01:26:37.161Z,98194.06
2023-07-19T01:29:04.212Z,98191.11
2023-07-19T01:31:31.070Z,98183.02
2023-07-19T01:33:58.018Z,98179.92
2023-07-19T01:36:25.390Z,98179.31
2023-07-19T01:38:53.387Z,98179.56
2023-07-19T01:41:22.120Z,98175.19
2023-07-19T01:43:49.217Z,98173.61
2023-07-19T01:46:16.870Z,98173.61
2023-07-19T01:48:43.940Z,98172.79
2023-07-19T01:51:10.851Z,98175.42
2023-07-19T01:53:37.854Z,98175.63
2023-07-19T01:56:04.976Z,98174.23
2023-07-19T01:58:31.942Z,98171.29
2023-07-19T02:00:59.577Z,98164.38
2023-07-19T02:03:26.626Z,98157.52
2023-07-19T02:05:58.193Z,98160.38
2023-07-19T02:08:25.752Z,98157.75
2023-07-19T02:10:52.762Z,98160.84
2023-07-19T02:13:19.616Z,98162.49
2023-07-19T02:15:47.705Z,98163.30
2023-07-19T02:18:14.778Z,98164.41
2023-07-19T02:20:45.820Z,98163.77
2023-07-19T02:23:13.191Z,98166.20
2023-07-19T02:25:42.251Z,98163.99
2023-07-19T02:28:09.794Z,98163.73
2023-07-19T02:30:36.784Z,98162.21
2023-07-19T02:33:03.657Z,98161.52
2023-07-19T02:35:30.970Z,98160.12
2023-07-19T02:37:57.865Z,98162.46
2023-07-19T02:40:24.830Z,98163.70
2023-07-19T02:42:51.809Z,98161.19
2023-07-19T02:45:18.693Z,98161.63
2023-07-19T02:47:45.526Z,98160.10
2023-07-19T02:50:12.569Z,98157.78
2023-07-19T02:52:39.629Z,98154.41
2023-07-19T02:55:06.703Z,98152.60
2023-07-19T02:57:33.657Z,98153.01
2023-07-19T03:00:00.641Z,98156.69
2023-07-19T03:02:27.507Z,98154.88
2023-07-19T03:04:54.407Z,98151.52
2023-07-19T03:07:22.713Z,98143.78
2023-07-19T03:09:49.517Z,98147.10
2023-07-19T03:12:16.480Z,98140.36
2023-07-19T03:14:44.029Z,98141.29
2023-07-19T03:17:11.328Z,98139.27
2023-07-19T03:19:38.393Z,98141.52
2023-07-19T03:22:05.841Z,98139.63
2023-07-19T03:24:32.992Z,98141.52
2023-07-19T03:26:59.824Z,98136.74
2023-07-19T03:29:26.918Z,98129.89
2023-07-19T03:31:53.816Z,98133.02
2023-07-19T03:34:22.332Z,98134.35
2023-07-19T03:36:49.121Z,98132.97
2023-07-19T03:39:16.756Z,98130.92
2023-07-19T03:41:43.591Z,98132.86
2023-07-19T03:44:10.886Z,98135.95
2023-07-19T03:46:38.699Z,98137.98
2023-07-19T06:10:46.942Z,98109.91
2023-07-19T07:18:45.843Z,98056.02
2023-07-19T13:34:44.467Z,97756.30
2023-07-19T13:38:15.096Z,97755.57
2023-07-19T13:48:56.000Z,97745.48
2023-07-19T13:52:19.332Z,97730.58
2023-07-19T14:00:24.483Z,97749.02
2023-07-19T14:05:08.976Z,97750.29
2023-07-19T14:07:25.160Z,97737.05
2023-07-19T14:13:09.932Z,97735.45
2023-07-19T14:19:16.974Z,97741.38
2023-07-19T14:35:04.833Z,97734.36
2023-07-19T14:42:09.072Z,97721.65
2023-07-19T14:44:41.704Z,97714.20
2023-07-19T14:48:15.867Z,97719.33
2023-07-19T14:57:57.640Z,97715.63
2023-07-19T15:03:03.636Z,97707.22
2023-07-19T15:05:37.554Z,97707.83
2023-07-19T15:08:06.080Z,97704.15
2023-07-19T15:10:33.364Z,97686.24
2023-07-19T15:13:39.566Z,97687.59
2023-07-19T15:16:20.472Z,97694.11
2023-07-19T15:18:50.525Z,97697.33
2023-07-19T15:24:33.275Z,97692.45
2023-07-19T15:27:20.547Z,97694.11
2023-07-19T15:29:47.405Z,97695.17
2023-07-19T15:32:14.292Z,97692.42
2023-07-19T15:34:41.115Z,97689.33
2023-07-19T15:37:07.937Z,97692.21
2023-07-19T15:39:34.811Z,97691.17
2023-07-19T15:42:02.549Z,97697.29
2023-07-19T15:44:36.325Z,97699.22
2023-07-19T15:47:04.893Z,97701.71
2023-07-19T15:49:32.106Z,97700.64
2023-07-19T15:51:59.859Z,97695.52
2023-07-19T15:54:26.954Z,97686.75
2023-07-19T15:56:54.843Z,97698.50
2023-07-19T15:59:21.865Z,97698.92
2023-07-19T16:01:48.938Z,97701.55
2023-07-19T16:04:16.288Z,97697.73
2023-07-19T16:06:43.426Z,97692.51
2023-07-19T16:09:10.241Z,97691.39
2023-07-19T16:11:37.288Z,97695.04
2023-07-19T16:14:07.393Z,97701.37
2023-07-19T16:16:37.358Z,97703.04
2023-07-19T16:19:04.262Z,97700.27
2023-07-19T16:21:31.202Z,97699.38
2023-07-19T16:23:58.347Z,97694.20
2023-07-19T16:26:25.641Z,97694.39
2023-07-19T16:28:52.689Z,97693.43
2023-07-19T16:31:21.028Z,97692.53
2023-07-19T16:33:48.268Z,97690.61
2023-07-19T16:36:15.292Z,97690.73
2023-07-19T16:38:42.267Z,97687.72
2023-07-19T16:41:09.369Z,97688.48
2023-07-19T16:43:36.226Z,97691.21
2023-07-19T16:46:03.782Z,97692.21
2023-07-19T16:48:32.962Z,97691.20
2023-07-19T16:50:59.873Z,97688.52
2023-07-19T16:53:26.729Z,97694.78
2023-07-19T16:55:53.540Z,97696.33
2023-07-19T16:58:20.825Z,97694.04
2023-07-19T17:00:47.969Z,97694.05
2023-07-19T17:03:14.948Z,97693.78
2023-07-19T17:05:41.963Z,97701.19
2023-07-19T17:08:08.831Z,97697.34
2023-07-19T17:10:36.110Z,97702.58
2023-07-19T17:13:04.629Z,97704.61
2023-07-19T17:15:31.768Z,97701.93
2023-07-19T17:18:00.400Z,97703.52
2023-07-19T17:20:28.889Z,97708.84
2023-07-19T17:22:56.346Z,97711.19
2023-07-19T17:25:23.250Z,97710.63
2023-07-19T17:27:50.174Z,97709.52
2023-07-19T17:30:17.215Z,97713.73
2023-07-19T17:32:45.860Z,97718.43
2023-07-19T17:35:16.412Z,97714.95
2023-07-19T17:37:43.223Z,97710.10
2023-07-19T17:40:11.750Z,97710.04
2023-07-19T17:42:39.416Z,97712.82
2023-07-19T17:45:08.611Z,97716.77
2023-07-19T17:47:35.477Z,97719.90
2023-07-19T17:50:02.309Z,97721.93
2023-07-19T17:52:30.733Z,97718.08
2023-07-19T17:54:58.199Z,97715.46
2023-07-19T17:57:25.160Z,97714.93
2023-07-19T17:59:52.003Z,97721.48
2023-07-19T18:02:20.702Z,97722.02
2023-07-19T18:04:48.241Z,97721.47
2023-07-19T18:07:15.286Z,97719.29
2023-07-19T18:09:43.044Z,97728.87
2023-07-19T18:12:11.473Z,97720.15
2023-07-19T18:14:38.428Z,97709.58
2023-07-19T18:17:07.101Z,97706.14
2023-07-19T18:19:34.818Z,97706.65
2023-07-19T18:22:04.408Z,97707.46
2023-07-19T18:24:33.257Z,97711.03
2023-07-19T18:27:01.098Z,97715.02
2023-07-19T18:29:28.142Z,97713.27
2023-07-19T18:31:55.156Z,97711.52
2023-07-19T18:34:22.116Z,97711.08
2023-07-19T18:36:50.308Z,97709.83
2023-07-19T18:39:17.452Z,97712.41
2023-07-19T18:41:44.640Z,97718.46
2023-07-19T18:44:11.531Z,97721.89
2023-07-19T18:46:38.573Z,97725.20
2023-07-19T18:49:05.528Z,97723.10
2023-07-19T18:51:32.526Z,97725.91
2023-07-19T18:53:59.477Z,97733.23
2023-07-19T18:56:28.745Z,97743.92
2023-07-19T18:58:55.897Z,97745.26
2023-07-19T19:01:23.377Z,97753.27
2023-07-19T19:03:50.934Z,97753.58
2023-07-19T19:06:18.299Z,97748.27
2023-07-19T19:08:45.128Z,97751.66
2023-07-19T19:11:12.364Z,97752.17
2023-07-19T19:13:39.215Z,97753.72
2023-07-19T19:16:06.143Z,97757.06
2023-07-19T19:18:33.435Z,97761.20
2023-07-19T19:21:00.783Z,97753.77
2023-07-19T19:23:29.562Z,97750.70
2023-07-19T19:25:56.486Z,97738.52
2023-07-19T19:28:23.421Z,97744.90
2023-07-19T19:30:51.139Z,97746.60
2023-07-19T19:33:18.146Z,97747.67
2023-07-19T19:35:45.160Z,97748.59
2023-07-19T19:38:12.066Z,97755.36
2023-07-19T19:40:38.995Z,97761.04
2023-07-19T19:43:05.889Z,97762.21
2023-07-19T19:45:32.838Z,97764.42
2023-07-19T19:47:59.737Z,97766.69
2023-07-19T19:50:28.169Z,97763.55
2023-07-19T19:53:09.404Z,97766.02
2023-07-19T19:58:07.752Z,97764.60
2023-07-19T20:00:35.679Z,97769.85
2023-07-19T20:08:02.586Z,97773.13
2023-07-19T20:10:29.754Z,97773.98
2023-07-19T20:12:56.849Z,97780.94
2023-07-19T20:15:23.768Z,97777.20
2023-07-19T20:17:50.799Z,97776.47
2023-07-19T20:20:22.519Z,97769.20
2023-07-19T20:22:51.481Z,97763.83
2023-07-19T20:25:32.612Z,97760.97
2023-07-19T20:28:06.385Z,97757.99
2023-07-19T20:30:44.129Z,97754.05
2023-07-19T20:33:18.633Z,97750.19
2023-07-19T20:43:16.579Z,97760.21
2023-07-19T20:45:43.517Z,97761.20
2023-07-19T20:48:10.513Z,97760.80
2023-07-19T20:50:37.506Z,97763.54
2023-07-19T20:53:04.331Z,97764.02
2023-07-19T20:55:33.104Z,97757.30
2023-07-19T20:58:00.144Z,97754.38
2023-07-19T21:00:27.068Z,97755.39
2023-07-19T21:02:54.143Z,97759.84
2023-07-19T21:05:21.138Z,97759.97
2023-07-19T21:07:48.036Z,97759.40
2023-07-19T21:10:16.498Z,97759.23
2023-07-19T21:12:43.379Z,97757.93
2023-07-19T21:15:11.892Z,97764.38
2023-07-19T21:17:40.448Z,97759.40
2023-07-19T21:20:08.067Z,97760.81
2023-07-19T21:22:35.194Z,97768.61
2023-07-19T21:27:32.821Z,97781.71
2023-07-19T21:29:59.817Z,97788.86
2023-07-19T21:32:26.680Z,97793.14
2023-07-19T21:34:53.727Z,97795.52
2023-07-19T21:37:21.715Z,97794.52
2023-07-19T21:39:49.416Z,97785.45
2023-07-19T21:42:16.760Z,97779.05
2023-07-19T21:44:43.920Z,97784.52
2023-07-19T21:47:10.934Z,97786.86
2023-07-19T21:49:37.859Z,97789.41
2023-07-19T21:52:05.830Z,97785.83
2023-07-19T21:54:32.741Z,97784.88
2023-07-19T21:56:59.612Z,97777.70
2023-07-19T21:59:26.693Z,97776.80
2023-07-19T22:01:53.542Z,97779.03
2023-07-19T22:04:20.525Z,97772.38
2023-07-19T22:06:47.474Z,97766.36
2023-07-19T22:09:15.246Z,97765.42
2023-07-19T22:11:42.708Z,97759.88
2023-07-19T22:14:11.228Z,97755.27
2023-07-19T22:16:39.281Z,97758.75
2023-07-19T22:19:06.407Z,97760.75
2023-07-19T22:21:33.225Z,97763.18
2023-07-19T22:24:00.051Z,97766.44
2023-07-19T22:26:26.977Z,97764.52
2023-07-19T22:29:02.743Z,97767.20
2023-07-19T22:31:30.209Z,97763.80
2023-07-19T22:33:57.441Z,97759.17
2023-07-19T22:36:24.613Z,97760.61
2023-07-19T22:38:51.787Z,97755.79
2023-07-19T22:41:18.636Z,97748.94
2023-07-19T22:43:45.455Z,97747.17
2023-07-19T22:46:12.460Z,97754.74
2023-07-19T22:48:39.428Z,97754.31
2023-07-19T22:51:06.489Z,97751.81
2023-07-19T22:53:33.883Z,97751.60
2023-07-19T22:56:02.832Z,97744.38
2023-07-19T22:58:30.213Z,97743.23
2023-07-19T23:00:58.542Z,97744.79
2023-07-19T23:03:26.029Z,97744.54
2023-07-19T23:05:53.898Z,97743.11
2023-07-19T23:08:21.087Z,97746.39
2023-07-19T23:10:48.259Z,97752.27
2023-07-19T23:13:15.337Z,97750.39
2023-07-19T23:15:43.388Z,97749.01
2023-07-19T23:18:10.366Z,97749.80
2023-07-19T23:20:38.690Z,97753.18
2023-07-19T23:23:05.748Z,97749.95
2023-07-19T23:25:32.662Z,97751.33
2023-07-19T23:28:02.073Z,97752.95
2023-07-19T23:30:29.304Z,97752.30
2023-07-19T23:32:58.643Z,97747.42
2023-07-19T23:35:25.585Z,97755.85
2023-07-19T23:37:53.544Z,97749.13
2023-07-19T23:40:20.409Z,97748.80
2023-07-19T23:42:47.243Z,97751.38
2023-07-19T23:45:14.029Z,97747.43
2023-07-19T23:47:41.148Z,97749.17
2023-07-19T23:50:08.530Z,97752.88
2023-07-19T23:52:35.484Z,97757.98
2023-07-19T23:55:04.594Z,97761.26
2023-07-19T23:57:31.366Z,97759.05
2023-07-19T23:59:58.239Z,97752.31
